createdAt,value
2022-07-31T00:01:34.690Z,17.70
2022-07-31T00:04:03.543Z,17.70
2022-07-31T00:06:33.531Z,17.70
2022-07-31T00:09:02.072Z,17.80
2022-07-31T00:11:31.228Z,17.90
2022-07-31T00:13:59.673Z,17.90
2022-07-31T00:16:28.208Z,18.00
2022-07-31T00:18:56.720Z,18.10
2022-07-31T00:21:25.354Z,18.00
2022-07-31T00:23:55.234Z,18.00
2022-07-31T00:26:24.046Z,18.00
2022-07-31T00:28:52.512Z,17.90
2022-07-31T00:31:21.099Z,17.90
2022-07-31T00:33:49.572Z,18.00
2022-07-31T00:36:18.177Z,17.90
2022-07-31T00:38:46.758Z,18.00
2022-07-31T00:41:16.716Z,17.60
2022-07-31T00:43:45.404Z,17.60
2022-07-31T00:46:14.625Z,17.60
2022-07-31T00:48:43.363Z,17.60
2022-07-31T00:51:12.562Z,17.60
2022-07-31T00:53:41.055Z,17.50
2022-07-31T00:56:09.687Z,17.40
2022-07-31T00:58:39.610Z,17.30
2022-07-31T01:01:08.376Z,17.30
2022-07-31T01:03:36.910Z,17.40
2022-07-31T01:06:05.607Z,17.60
2022-07-31T01:08:34.098Z,17.80
2022-07-31T01:11:06.966Z,17.80
2022-07-31T01:13:41.082Z,17.80
2022-07-31T01:16:11.141Z,17.60
2022-07-31T01:18:41.260Z,17.60
2022-07-31T01:21:15.071Z,17.60
2022-07-31T01:23:55.104Z,17.70
2022-07-31T01:26:36.082Z,17.70
2022-07-31T01:29:25.969Z,17.60
2022-07-31T01:32:03.127Z,17.40
2022-07-31T01:34:36.160Z,17.40
2022-07-31T01:37:12.391Z,17.40
2022-07-31T01:39:46.609Z,17.30
2022-07-31T01:42:18.015Z,17.30
2022-07-31T01:44:50.855Z,17.00
2022-07-31T01:47:21.866Z,16.90
2022-07-31T01:49:51.670Z,17.00
2022-07-31T01:52:20.771Z,16.90
2022-07-31T01:54:49.555Z,16.80
2022-07-31T01:57:18.836Z,16.70
2022-07-31T01:59:49.539Z,16.70
2022-07-31T02:02:23.602Z,16.70
2022-07-31T02:04:53.056Z,16.80
2022-07-31T02:07:22.193Z,16.90
2022-07-31T02:09:58.840Z,16.80
2022-07-31T02:12:31.938Z,16.80
2022-07-31T02:15:06.059Z,16.70
2022-07-31T02:17:35.362Z,16.80
2022-07-31T02:20:05.647Z,16.80
2022-07-31T02:22:34.995Z,16.90
2022-07-31T02:25:03.874Z,16.90
2022-07-31T02:27:53.896Z,16.90
2022-07-31T02:30:22.920Z,16.90
2022-07-31T02:32:51.746Z,16.70
2022-07-31T02:35:20.861Z,16.60
2022-07-31T02:37:52.508Z,16.60
2022-07-31T02:40:21.629Z,16.60
2022-07-31T02:42:50.316Z,16.60
2022-07-31T02:45:19.530Z,16.60
2022-07-31T02:47:50.256Z,16.60
2022-07-31T02:50:20.237Z,16.60
2022-07-31T02:52:49.207Z,16.70
2022-07-31T02:55:19.039Z,16.80
2022-07-31T02:57:48.702Z,16.90
2022-07-31T03:00:23.052Z,17.00
2022-07-31T03:02:53.983Z,17.00
2022-07-31T03:05:22.922Z,17.10
2022-07-31T03:07:51.650Z,17.10
2022-07-31T03:10:20.679Z,17.20
2022-07-31T03:12:51.600Z,17.20
2022-07-31T03:15:22.003Z,17.10
2022-07-31T03:17:52.520Z,17.00
2022-07-31T03:20:21.469Z,17.10
2022-07-31T03:22:50.107Z,17.10
2022-07-31T03:25:21.863Z,17.10
2022-07-31T03:27:55.779Z,17.10
2022-07-31T03:30:26.139Z,17.10
2022-07-31T03:32:57.291Z,17.20
2022-07-31T03:35:27.111Z,17.40
2022-07-31T03:37:55.648Z,17.70
2022-07-31T03:40:24.265Z,18.00
2022-07-31T03:42:54.144Z,18.30
2022-07-31T03:45:23.217Z,18.50
2022-07-31T03:47:51.911Z,18.70
2022-07-31T03:50:22.534Z,18.80
2022-07-31T03:52:51.304Z,18.90
2022-07-31T03:55:20.011Z,19.10
2022-07-31T03:57:48.588Z,19.20
2022-07-31T04:00:20.543Z,19.30
2022-07-31T04:02:49.156Z,19.40
2022-07-31T04:05:17.799Z,19.50
2022-07-31T04:07:47.683Z,19.50
2022-07-31T04:10:16.202Z,19.60
2022-07-31T04:12:44.679Z,19.70
2022-07-31T04:15:13.327Z,19.70
2022-07-31T04:17:41.927Z,19.80
2022-07-31T04:20:11.653Z,19.80
2022-07-31T04:22:40.152Z,19.90
2022-07-31T04:25:10.947Z,20.00
2022-07-31T04:27:45.611Z,20.00
2022-07-31T04:30:16.708Z,20.00
2022-07-31T04:32:45.246Z,20.10
2022-07-31T04:35:14.305Z,20.10
2022-07-31T04:37:48.217Z,20.20
2022-07-31T04:40:18.473Z,20.20
2022-07-31T04:42:46.948Z,20.20
2022-07-31T04:45:15.512Z,20.20
2022-07-31T04:47:44.023Z,20.20
2022-07-31T04:50:12.596Z,20.20
2022-07-31T04:52:41.179Z,20.20
2022-07-31T04:55:10.613Z,20.20
2022-07-31T04:57:40.499Z,20.20
2022-07-31T05:00:10.617Z,20.30
2022-07-31T05:02:40.405Z,20.30
2022-07-31T05:05:09.742Z,20.40
2022-07-31T05:07:38.216Z,20.40
2022-07-31T05:10:07.466Z,20.40
2022-07-31T05:12:35.963Z,20.50
2022-07-31T05:15:06.986Z,20.50
2022-07-31T05:17:35.458Z,20.50
2022-07-31T05:20:04.096Z,20.50
2022-07-31T05:22:32.572Z,20.40
2022-07-31T05:25:01.173Z,20.30
2022-07-31T05:27:32.229Z,20.30
2022-07-31T05:30:08.244Z,20.20
2022-07-31T05:32:36.742Z,20.20
2022-07-31T05:35:06.007Z,20.10
2022-07-31T05:37:36.450Z,20.10
2022-07-31T05:40:05.903Z,20.10
2022-07-31T05:42:34.398Z,20.10
2022-07-31T05:45:03.129Z,20.00
2022-07-31T05:47:40.693Z,20.00
2022-07-31T05:50:10.430Z,20.00
2022-07-31T05:52:38.963Z,20.10
2022-07-31T05:55:08.283Z,20.20
2022-07-31T05:57:36.799Z,20.20
2022-07-31T06:00:06.368Z,20.30
2022-07-31T06:02:36.822Z,20.40
2022-07-31T06:05:05.520Z,20.40
2022-07-31T06:07:33.995Z,20.50
2022-07-31T06:10:02.517Z,20.50
2022-07-31T06:12:30.982Z,20.50
2022-07-31T06:15:00.137Z,20.60
2022-07-31T06:17:40.325Z,20.70
2022-07-31T06:20:14.716Z,21.00
2022-07-31T06:22:44.919Z,21.10
2022-07-31T06:25:14.154Z,21.40
2022-07-31T06:27:43.955Z,21.70
2022-07-31T06:30:19.579Z,22.20
2022-07-31T06:32:48.073Z,22.70
2022-07-31T06:35:18.018Z,23.20
2022-07-31T06:37:46.516Z,23.60
2022-07-31T06:40:15.179Z,24.00
2022-07-31T06:42:45.646Z,24.30
2022-07-31T06:45:29.902Z,24.70
2022-07-31T06:48:02.807Z,25.00
2022-07-31T06:50:32.668Z,25.30
2022-07-31T06:53:01.162Z,25.50
2022-07-31T06:55:29.675Z,25.80
2022-07-31T06:57:58.577Z,26.10
2022-07-31T07:00:27.341Z,26.30
2022-07-31T07:02:56.197Z,26.50
2022-07-31T07:05:25.139Z,26.60
2022-07-31T07:07:55.022Z,26.80
2022-07-31T07:10:23.599Z,26.90
2022-07-31T07:12:52.138Z,27.20
2022-07-31T07:15:22.751Z,27.30
2022-07-31T07:17:51.800Z,27.50
2022-07-31T07:20:20.468Z,27.60
2022-07-31T07:22:49.060Z,27.60
2022-07-31T07:25:20.505Z,27.80
2022-07-31T07:27:49.123Z,27.80
2022-07-31T07:30:17.651Z,27.90
2022-07-31T07:32:46.282Z,27.90
2022-07-31T07:35:14.881Z,27.90
2022-07-31T07:37:43.517Z,27.80
2022-07-31T07:40:12.722Z,27.80
2022-07-31T07:42:44.605Z,27.80
2022-07-31T07:45:18.319Z,27.70
2022-07-31T07:47:53.765Z,27.70
2022-07-31T07:50:34.931Z,27.80
2022-07-31T07:53:03.618Z,27.90
2022-07-31T07:55:37.350Z,27.90
2022-07-31T07:58:12.113Z,27.90
2022-07-31T08:00:41.247Z,28.00
2022-07-31T08:03:49.068Z,28.10
2022-07-31T08:06:01.548Z,28.10
2022-07-31T08:08:30.133Z,28.10
2022-07-31T08:10:59.183Z,28.20
2022-07-31T08:13:29.055Z,28.20
2022-07-31T08:15:57.702Z,28.20
2022-07-31T08:18:31.700Z,28.20
2022-07-31T08:21:00.476Z,28.20
2022-07-31T08:23:29.211Z,28.00
2022-07-31T08:25:57.757Z,27.90
2022-07-31T08:28:28.623Z,27.70
2022-07-31T08:30:58.411Z,27.50
2022-07-31T08:33:27.108Z,27.40
2022-07-31T08:35:56.918Z,27.30
2022-07-31T08:38:25.502Z,27.20
2022-07-31T08:40:53.985Z,27.10
2022-07-31T08:44:00.544Z,27.00
2022-07-31T08:46:13.041Z,27.00
2022-07-31T08:48:42.844Z,26.90
2022-07-31T08:51:14.240Z,26.80
2022-07-31T08:53:44.356Z,26.80
2022-07-31T08:56:13.566Z,26.70
2022-07-31T08:58:42.183Z,26.60
2022-07-31T09:01:14.554Z,26.50
2022-07-31T09:03:45.722Z,26.40
2022-07-31T09:06:14.254Z,26.40
2022-07-31T09:08:42.758Z,26.30
2022-07-31T09:11:13.350Z,26.20
2022-07-31T09:13:42.579Z,26.30
2022-07-31T09:16:32.110Z,26.20
2022-07-31T09:19:02.186Z,26.30
2022-07-31T09:21:40.380Z,26.20
2022-07-31T09:24:10.315Z,26.10
2022-07-31T09:26:40.957Z,26.10
2022-07-31T09:29:11.948Z,26.00
2022-07-31T09:31:41.928Z,26.00
2022-07-31T09:34:10.584Z,25.90
2022-07-31T09:36:39.111Z,25.90
2022-07-31T09:39:15.180Z,25.90
2022-07-31T09:41:58.312Z,26.00
2022-07-31T09:44:45.800Z,26.00
2022-07-31T09:47:28.032Z,26.10
2022-07-31T09:49:58.350Z,26.20
2022-07-31T09:52:27.893Z,26.20
2022-07-31T09:55:14.291Z,26.20
2022-07-31T09:57:54.450Z,26.30
2022-07-31T10:00:23.658Z,26.30
2022-07-31T10:02:55.577Z,26.30
2022-07-31T10:05:25.489Z,26.40
2022-07-31T10:07:55.588Z,26.30
2022-07-31T10:10:25.334Z,26.30
2022-07-31T10:12:56.129Z,26.30
2022-07-31T10:15:24.988Z,26.30
2022-07-31T10:17:55.898Z,26.30
2022-07-31T10:20:25.805Z,26.40
2022-07-31T10:22:57.214Z,26.40
2022-07-31T10:25:27.843Z,26.50
2022-07-31T10:27:57.706Z,26.50
2022-07-31T10:30:28.308Z,26.50
2022-07-31T10:32:59.226Z,26.50
2022-07-31T10:35:27.869Z,26.50
2022-07-31T10:38:02.716Z,26.50
2022-07-31T10:40:37.307Z,26.50
2022-07-31T10:43:19.367Z,26.50
2022-07-31T10:45:49.157Z,26.60
2022-07-31T10:48:19.696Z,26.60
2022-07-31T10:50:49.022Z,26.60
2022-07-31T10:53:19.406Z,26.70
2022-07-31T10:55:48.069Z,26.70
2022-07-31T10:58:19.578Z,26.80
2022-07-31T11:00:48.336Z,26.90
2022-07-31T11:03:20.224Z,26.90
2022-07-31T11:06:00.967Z,27.00
2022-07-31T11:08:42.462Z,27.00
2022-07-31T11:11:11.665Z,27.00
2022-07-31T11:13:47.752Z,27.10
2022-07-31T11:16:16.356Z,27.10
2022-07-31T11:18:47.469Z,27.20
2022-07-31T11:21:37.567Z,27.30
2022-07-31T11:24:15.423Z,27.30
2022-07-31T11:26:49.606Z,27.30
2022-07-31T11:30:01.945Z,27.40
2022-07-31T11:32:17.702Z,27.40
2022-07-31T11:34:58.827Z,27.40
2022-07-31T11:37:46.495Z,27.40
2022-07-31T11:40:20.474Z,27.40
2022-07-31T11:43:10.395Z,27.40
2022-07-31T11:45:48.235Z,27.40
2022-07-31T11:48:19.241Z,27.40
2022-07-31T11:50:51.102Z,27.50
2022-07-31T11:53:21.177Z,27.40
2022-07-31T11:55:51.689Z,27.30
2022-07-31T11:58:23.499Z,27.30
2022-07-31T12:00:53.615Z,27.30
2022-07-31T12:03:24.034Z,27.30
2022-07-31T12:05:54.682Z,27.40
2022-07-31T12:08:24.173Z,27.30
2022-07-31T12:10:54.599Z,27.50
2022-07-31T12:13:24.311Z,27.50
2022-07-31T12:15:58.072Z,27.50
2022-07-31T12:18:29.531Z,27.50
2022-07-31T12:21:01.315Z,27.50
2022-07-31T12:23:41.799Z,27.60
2022-07-31T12:26:14.113Z,27.60
2022-07-31T12:28:43.689Z,27.70
2022-07-31T12:31:12.198Z,27.70
2022-07-31T12:33:44.381Z,27.60
2022-07-31T12:36:15.567Z,27.60
2022-07-31T12:38:48.511Z,27.50
2022-07-31T12:41:18.145Z,27.40
2022-07-31T12:43:51.836Z,27.50
2022-07-31T12:46:22.911Z,27.50
2022-07-31T12:48:52.081Z,27.50
2022-07-31T12:51:46.313Z,27.60
2022-07-31T12:54:11.296Z,27.60
2022-07-31T12:56:40.677Z,27.70
2022-07-31T12:59:10.263Z,27.80
2022-07-31T13:01:39.025Z,27.80
2022-07-31T13:04:18.943Z,27.80
2022-07-31T13:06:51.624Z,27.80
2022-07-31T13:09:21.176Z,27.80
2022-07-31T13:11:54.485Z,27.80
2022-07-31T13:14:26.065Z,27.80
2022-07-31T13:16:55.207Z,27.90
2022-07-31T13:19:23.707Z,27.90
2022-07-31T13:21:56.914Z,27.90
2022-07-31T13:24:26.289Z,27.90
2022-07-31T13:26:54.939Z,27.80
2022-07-31T13:29:23.510Z,27.80
2022-07-31T13:31:52.369Z,27.80
2022-07-31T13:34:21.205Z,27.80
2022-07-31T13:36:49.685Z,27.80
2022-07-31T13:39:20.104Z,27.80
2022-07-31T13:41:48.665Z,27.80
2022-07-31T13:44:17.594Z,27.70
2022-07-31T13:46:47.358Z,27.50
2022-07-31T13:49:19.264Z,27.50
2022-07-31T13:51:47.706Z,27.40
2022-07-31T13:54:16.487Z,27.40
2022-07-31T13:56:46.385Z,27.40
2022-07-31T13:59:14.843Z,27.40
2022-07-31T14:02:03.580Z,27.40
2022-07-31T14:04:38.062Z,27.40
2022-07-31T14:07:08.875Z,27.40
2022-07-31T14:09:37.874Z,27.40
2022-07-31T14:12:09.068Z,27.50
2022-07-31T14:14:38.111Z,27.50
2022-07-31T14:17:06.619Z,27.50
2022-07-31T14:19:43.700Z,27.50
2022-07-31T14:22:14.931Z,27.50
2022-07-31T14:24:50.034Z,27.60
2022-07-31T14:27:21.884Z,27.60
2022-07-31T14:29:50.487Z,27.60
2022-07-31T14:32:19.650Z,27.60
2022-07-31T14:34:48.341Z,27.50
2022-07-31T14:37:16.911Z,27.50
2022-07-31T14:39:45.442Z,27.50
2022-07-31T14:42:14.357Z,27.30
2022-07-31T14:44:45.575Z,27.10
2022-07-31T14:47:14.834Z,27.10
2022-07-31T14:50:09.552Z,27.00
2022-07-31T14:52:32.763Z,26.90
2022-07-31T14:55:01.900Z,26.70
2022-07-31T14:57:31.470Z,26.60
2022-07-31T15:00:01.946Z,26.50
2022-07-31T15:02:30.455Z,26.50
2022-07-31T15:06:37.614Z,26.40
2022-07-31T15:07:48.314Z,26.30
2022-07-31T15:10:17.125Z,26.30
2022-07-31T15:12:45.627Z,26.40
2022-07-31T15:15:15.506Z,26.40
2022-07-31T15:17:43.975Z,26.40
2022-07-31T15:20:13.501Z,26.40
2022-07-31T15:22:52.392Z,26.30
2022-07-31T15:25:24.204Z,26.30
2022-07-31T15:28:10.567Z,26.20
2022-07-31T15:30:43.076Z,26.10
2022-07-31T15:33:11.621Z,26.10
2022-07-31T15:35:40.211Z,26.00
2022-07-31T15:38:08.944Z,25.90
2022-07-31T15:40:37.726Z,25.90
2022-07-31T15:43:06.295Z,25.90
2022-07-31T15:45:34.823Z,25.90
2022-07-31T15:48:09.841Z,25.80
2022-07-31T15:50:38.784Z,25.80
2022-07-31T15:53:32.851Z,25.70
2022-07-31T15:56:08.075Z,25.70
2022-07-31T15:58:36.660Z,25.70
2022-07-31T16:01:05.350Z,25.70
2022-07-31T16:03:50.398Z,25.70
2022-07-31T16:06:19.771Z,25.70
2022-07-31T16:09:01.982Z,25.70
2022-07-31T16:12:03.668Z,25.70
2022-07-31T16:14:19.335Z,25.70
2022-07-31T16:16:47.903Z,25.70
2022-07-31T16:19:21.808Z,25.70
2022-07-31T16:21:50.422Z,25.70
2022-07-31T16:24:20.467Z,25.70
2022-07-31T16:26:50.395Z,25.80
2022-07-31T16:29:59.306Z,25.80
2022-07-31T16:32:10.204Z,25.90
2022-07-31T16:34:40.303Z,25.90
2022-07-31T16:37:08.903Z,25.90
2022-07-31T16:39:37.431Z,25.90
2022-07-31T16:42:26.142Z,25.90
2022-07-31T16:45:14.722Z,25.90
2022-07-31T16:47:51.011Z,25.90
2022-07-31T16:50:23.262Z,25.90
2022-07-31T16:52:54.826Z,25.90
2022-07-31T16:55:46.144Z,25.80
2022-07-31T16:58:13.714Z,25.80
2022-07-31T17:00:42.617Z,25.80
2022-07-31T17:04:01.610Z,25.80
2022-07-31T17:06:01.446Z,25.80
2022-07-31T17:08:29.991Z,25.70
2022-07-31T17:10:58.558Z,25.70
2022-07-31T17:13:27.217Z,25.60
2022-07-31T17:15:55.945Z,25.60
2022-07-31T17:18:25.363Z,25.50
2022-07-31T17:20:55.823Z,25.50
2022-07-31T17:23:42.835Z,25.50
2022-07-31T17:26:21.452Z,25.40
2022-07-31T17:28:51.357Z,25.40
2022-07-31T17:31:20.451Z,25.40
2022-07-31T17:33:49.123Z,25.30
2022-07-31T17:36:28.802Z,25.30
2022-07-31T17:38:59.074Z,25.30
2022-07-31T17:41:27.658Z,25.20
2022-07-31T17:43:56.451Z,25.20
2022-07-31T17:46:34.975Z,25.10
2022-07-31T17:49:19.513Z,25.10
2022-07-31T17:52:00.010Z,25.00
2022-07-31T17:54:37.780Z,25.00
2022-07-31T17:57:06.542Z,24.90
2022-07-31T17:59:35.134Z,24.90
2022-07-31T18:02:04.749Z,24.80
2022-07-31T18:04:35.120Z,24.80
2022-07-31T18:07:05.296Z,24.60
2022-07-31T18:09:35.211Z,24.60
2022-07-31T18:12:05.842Z,24.50
2022-07-31T18:14:34.542Z,24.30
2022-07-31T18:17:03.191Z,24.20
2022-07-31T18:19:31.764Z,24.10
2022-07-31T18:22:00.242Z,24.00
2022-07-31T18:24:29.158Z,23.90
2022-07-31T18:26:57.728Z,23.80
2022-07-31T18:29:27.635Z,23.80
2022-07-31T18:31:56.299Z,23.70
2022-07-31T18:34:25.040Z,23.60
2022-07-31T18:36:55.138Z,23.40
2022-07-31T18:39:24.404Z,23.30
2022-07-31T18:41:52.994Z,23.30
2022-07-31T18:44:22.228Z,23.20
2022-07-31T18:46:53.078Z,23.10
2022-07-31T18:50:58.659Z,23.00
2022-07-31T18:52:10.372Z,23.00
2022-07-31T18:54:39.498Z,22.90
2022-07-31T18:57:08.806Z,22.80
2022-07-31T18:59:37.901Z,22.70
2022-07-31T19:02:11.454Z,22.70
2022-07-31T19:04:40.632Z,22.60
2022-07-31T19:07:10.184Z,22.60
2022-07-31T19:09:39.043Z,22.60
2022-07-31T19:12:09.001Z,22.50
2022-07-31T19:14:37.657Z,22.50
2022-07-31T19:17:08.479Z,22.40
2022-07-31T19:19:54.709Z,22.40
2022-07-31T19:22:26.190Z,22.40
2022-07-31T19:24:55.027Z,22.30
2022-07-31T19:27:47.176Z,22.20
2022-07-31T19:30:13.871Z,22.20
2022-07-31T19:32:44.151Z,22.20
2022-07-31T19:35:12.742Z,22.10
2022-07-31T19:37:41.294Z,22.10
2022-07-31T19:40:11.035Z,22.00
2022-07-31T19:42:40.566Z,21.90
2022-07-31T19:45:09.673Z,21.90
2022-07-31T19:47:38.331Z,21.90
2022-07-31T19:50:12.284Z,21.90
2022-07-31T19:52:41.274Z,21.90
2022-07-31T19:55:14.863Z,21.90
2022-07-31T19:57:43.613Z,21.80
2022-07-31T20:00:13.406Z,21.80
2022-07-31T20:02:42.310Z,21.80
2022-07-31T20:05:13.472Z,21.70
2022-07-31T20:07:42.009Z,21.70
2022-07-31T20:10:11.377Z,21.70
2022-07-31T20:12:40.840Z,21.70
2022-07-31T20:15:10.344Z,21.70
2022-07-31T20:17:39.585Z,21.70
2022-07-31T20:20:15.772Z,21.70
2022-07-31T20:22:46.152Z,21.70
2022-07-31T20:25:20.421Z,21.70
2022-07-31T20:27:49.937Z,21.70
2022-07-31T20:30:21.903Z,21.60
2022-07-31T20:32:51.526Z,21.60
2022-07-31T20:35:33.030Z,21.70
2022-07-31T20:38:15.713Z,21.60
2022-07-31T20:40:48.161Z,21.60
2022-07-31T20:43:24.671Z,21.60
2022-07-31T20:45:54.481Z,21.60
2022-07-31T20:48:24.486Z,21.60
2022-07-31T20:50:54.147Z,21.50
2022-07-31T20:53:24.313Z,21.40
2022-07-31T20:55:52.917Z,21.40
2022-07-31T20:58:22.633Z,21.30
2022-07-31T21:00:51.686Z,21.30
2022-07-31T21:03:20.639Z,21.30
2022-07-31T21:05:49.746Z,21.30
2022-07-31T21:08:18.740Z,21.30
2022-07-31T21:10:48.692Z,21.20
2022-07-31T21:13:17.455Z,21.20
2022-07-31T21:15:46.191Z,21.20
2022-07-31T21:18:15.574Z,21.20
2022-07-31T21:20:50.779Z,21.20
2022-07-31T21:23:22.925Z,21.30
2022-07-31T21:25:53.925Z,21.30
2022-07-31T21:28:23.210Z,21.30
2022-07-31T21:30:53.641Z,21.30
2022-07-31T21:33:22.541Z,21.20
2022-07-31T21:35:51.631Z,21.20
2022-07-31T21:38:20.662Z,21.10
2022-07-31T21:40:49.260Z,21.10
2022-07-31T21:43:22.738Z,21.10
2022-07-31T21:45:57.717Z,21.10
2022-07-31T21:48:31.945Z,21.00
2022-07-31T21:51:01.677Z,21.00
2022-07-31T21:53:30.374Z,21.00
2022-07-31T21:56:01.631Z,21.00
2022-07-31T21:58:31.551Z,21.00
2022-07-31T22:01:00.151Z,21.00
2022-07-31T22:03:28.670Z,20.90
2022-07-31T22:06:14.799Z,20.80
2022-07-31T22:08:43.408Z,20.80
2022-07-31T22:11:12.038Z,20.70
2022-07-31T22:13:41.931Z,20.70
2022-07-31T22:16:10.851Z,20.60
2022-07-31T22:18:39.808Z,20.70
2022-07-31T22:21:09.477Z,20.60
2022-07-31T22:23:38.490Z,20.60
2022-07-31T22:26:07.336Z,20.60
2022-07-31T22:28:36.204Z,20.50
2022-07-31T22:31:08.287Z,20.50
2022-07-31T22:33:36.972Z,20.40
2022-07-31T22:36:07.146Z,20.30
2022-07-31T22:38:38.004Z,20.20
2022-07-31T22:41:06.687Z,20.20
2022-07-31T22:44:10.224Z,20.10
2022-07-31T22:46:25.532Z,20.10
2022-07-31T22:48:54.340Z,20.00
2022-07-31T22:51:23.111Z,20.00
2022-07-31T22:53:51.623Z,20.00
2022-07-31T22:56:20.143Z,20.00
2022-07-31T22:58:48.599Z,19.80
2022-07-31T23:01:17.056Z,19.90
2022-07-31T23:03:46.926Z,19.90
2022-07-31T23:06:31.793Z,19.80
2022-07-31T23:09:01.832Z,19.80
2022-07-31T23:11:30.489Z,19.80
2022-07-31T23:13:59.057Z,19.80
2022-07-31T23:16:27.991Z,19.90
2022-07-31T23:18:58.051Z,19.80
2022-07-31T23:21:26.696Z,19.80
2022-07-31T23:23:55.261Z,19.80
2022-07-31T23:26:25.019Z,19.90
2022-07-31T23:28:54.494Z,19.80
2022-07-31T23:31:24.163Z,19.70
2022-07-31T23:33:52.979Z,19.60
2022-07-31T23:36:23.031Z,19.50
2022-07-31T23:38:51.691Z,19.40
2022-07-31T23:41:41.480Z,19.50
2022-07-31T23:44:10.497Z,19.60
2022-07-31T23:46:40.185Z,19.60
2022-07-31T23:49:09.764Z,19.50
2022-07-31T23:51:40.446Z,19.60
2022-07-31T23:54:09.065Z,19.60
2022-07-31T23:56:37.565Z,19.60
2022-07-31T23:59:06.107Z,19.50
